sensor_id;sensor_type;location;lat;lon;timestamp;pressure;altitude;pressure_sealevel;temperature;humidity
18765;BME280;9511;54.242;12.448;2023-04-06T03:05:55;101946.78;;;-2.55;99.05
18765;BME280;9511;54.242;12.448;2023-04-06T03:08:28;101950.13;;;-2.56;99.42
18765;BME280;9511;54.242;12.448;2023-04-06T03:10:56;101951.69;;;-2.58;99.57
18765;BME280;9511;54.242;12.448;2023-04-06T03:13:31;101952.41;;;-2.59;99.11
18765;BME280;9511;54.242;12.448;2023-04-06T03:15:58;101953.66;;;-2.64;99.26
18765;BME280;9511;54.242;12.448;2023-04-06T03:18:27;101950.00;;;-2.66;99.24
18765;BME280;9511;54.242;12.448;2023-04-06T03:20:57;101954.28;;;-2.67;99.13
18765;BME280;9511;54.242;12.448;2023-04-06T03:23:32;101959.31;;;-2.68;99.18
18765;BME280;9511;54.242;12.448;2023-04-06T03:26:01;101953.06;;;-2.70;99.30
18765;BME280;9511;54.242;12.448;2023-04-06T03:28:29;101950.78;;;-2.76;99.49
18765;BME280;9511;54.242;12.448;2023-04-06T03:30:59;101953.09;;;-2.79;98.89
18765;BME280;9511;54.242;12.448;2023-04-06T03:33:40;101948.69;;;-2.80;99.15
18765;BME280;9511;54.242;12.448;2023-04-06T03:36:13;101953.69;;;-2.81;99.63
18765;BME280;9511;54.242;12.448;2023-04-06T03:38:42;101954.47;;;-2.82;99.21
18765;BME280;9511;54.242;12.448;2023-04-06T03:41:12;101956.75;;;-2.85;99.54
18765;BME280;9511;54.242;12.448;2023-04-06T03:43:44;101957.03;;;-2.82;99.38
18765;BME280;9511;54.242;12.448;2023-04-06T03:46:11;101959.19;;;-2.78;99.83
18765;BME280;9511;54.242;12.448;2023-04-06T03:48:38;101959.19;;;-2.78;99.88
18765;BME280;9511;54.242;12.448;2023-04-06T03:51:07;101963.44;;;-2.87;100.00
18765;BME280;9511;54.242;12.448;2023-04-06T03:53:35;101955.84;;;-2.86;99.87
18765;BME280;9511;54.242;12.448;2023-04-06T03:56:04;101962.22;;;-2.82;100.00
18765;BME280;9511;54.242;12.448;2023-04-06T03:58:31;101958.59;;;-2.84;100.00
18765;BME280;9511;54.242;12.448;2023-04-06T04:00:58;101963.91;;;-2.83;100.00
18765;BME280;9511;54.242;12.448;2023-04-06T04:03:26;101966.81;;;-2.88;100.00
18765;BME280;9511;54.242;12.448;2023-04-06T04:05:54;101974.72;;;-2.87;100.00
18765;BME280;9511;54.242;12.448;2023-04-06T04:08:24;101967.13;;;-2.85;100.00
18765;BME280;9511;54.242;12.448;2023-04-06T04:10:53;101969.69;;;-2.77;100.00
18765;BME280;9511;54.242;12.448;2023-04-06T04:13:20;101968.91;;;-2.67;100.00
18765;BME280;9511;54.242;12.448;2023-04-06T04:15:50;101969.38;;;-2.71;100.00
18765;BME280;9511;54.242;12.448;2023-04-06T04:18:17;101978.66;;;-2.73;100.00
18765;BME280;9511;54.242;12.448;2023-04-06T04:20:44;101973.50;;;-2.73;100.00
18765;BME280;9511;54.242;12.448;2023-04-06T04:23:13;101969.84;;;-2.75;100.00
18765;BME280;9511;54.242;12.448;2023-04-06T04:25:40;101970.13;;;-2.72;100.00
18765;BME280;9511;54.242;12.448;2023-04-06T04:28:09;101973.63;;;-2.72;100.00
18765;BME280;9511;54.242;12.448;2023-04-06T04:30:37;101978.94;;;-2.70;100.00
18765;BME280;9511;54.242;12.448;2023-04-06T04:33:09;101982.03;;;-2.74;100.00
18765;BME280;9511;54.242;12.448;2023-04-06T04:35:36;101980.22;;;-2.75;100.00
18765;BME280;9511;54.242;12.448;2023-04-06T04:38:05;101983.84;;;-2.73;100.00
18765;BME280;9511;54.242;12.448;2023-04-06T04:40:34;101984.63;;;-2.74;100.00
18765;BME280;9511;54.242;12.448;2023-04-06T04:43:09;101977.13;;;-2.71;100.00
18765;BME280;9511;54.242;12.448;2023-04-06T04:45:39;101980.50;;;-2.72;100.00
18765;BME280;9511;54.242;12.448;2023-04-06T04:48:16;101979.72;;;-2.71;100.00
18765;BME280;9511;54.242;12.448;2023-04-06T04:50:57;101981.72;;;-2.69;100.00
18765;BME280;9511;54.242;12.448;2023-04-06T04:53:29;101987.81;;;-2.68;100.00
18765;BME280;9511;54.242;12.448;2023-04-06T04:56:03;101991.75;;;-2.63;100.00
18765;BME280;9511;54.242;12.448;2023-04-06T04:58:32;101983.38;;;-2.69;100.00
18765;BME280;9511;54.242;12.448;2023-04-06T05:01:00;101993.56;;;-2.62;100.00
18765;BME280;9511;54.242;12.448;2023-04-06T05:03:28;101985.81;;;-2.62;100.00
18765;BME280;9511;54.242;12.448;2023-04-06T05:05:59;101997.84;;;-2.62;100.00
18765;BME280;9511;54.242;12.448;2023-04-06T05:08:31;101995.97;;;-2.55;100.00
18765;BME280;9511;54.242;12.448;2023-04-06T05:10:59;102003.28;;;-2.51;100.00
18765;BME280;9511;54.242;12.448;2023-04-06T05:13:29;102000.72;;;-2.51;100.00
18765;BME280;9511;54.242;12.448;2023-04-06T05:15:59;101989.41;;;-2.43;100.00
18765;BME280;9511;54.242;12.448;2023-04-06T05:18:30;101987.13;;;-2.39;100.00
18765;BME280;9511;54.242;12.448;2023-04-06T05:20:58;101994.13;;;-2.38;100.00
18765;BME280;9511;54.242;12.448;2023-04-06T05:23:43;101993.75;;;-2.24;100.00
18765;BME280;9511;54.242;12.448;2023-04-06T05:26:11;102016.28;;;-2.15;100.00
18765;BME280;9511;54.242;12.448;2023-04-06T05:28:38;102001.28;;;-2.00;100.00
18765;BME280;9511;54.242;12.448;2023-04-06T05:31:09;102010.09;;;-1.89;100.00
18765;BME280;9511;54.242;12.448;2023-04-06T05:33:44;102003.00;;;-1.81;100.00
18765;BME280;9511;54.242;12.448;2023-04-06T05:36:15;102006.28;;;-1.65;100.00
18765;BME280;9511;54.242;12.448;2023-04-06T05:38:45;102011.19;;;-1.49;100.00
18765;BME280;9511;54.242;12.448;2023-04-06T05:41:38;102006.59;;;-1.43;100.00
18765;BME280;9511;54.242;12.448;2023-04-06T05:44:08;102008.63;;;-1.30;100.00
18765;BME280;9511;54.242;12.448;2023-04-06T05:46:36;102000.28;;;-1.18;100.00
18765;BME280;9511;54.242;12.448;2023-04-06T05:49:05;102008.56;;;-1.03;100.00
18765;BME280;9511;54.242;12.448;2023-04-06T05:51:33;102005.53;;;-0.89;100.00
18765;BME280;9511;54.242;12.448;2023-04-06T05:54:00;102003.41;;;-0.74;100.00
18765;BME280;9511;54.242;12.448;2023-04-06T05:56:28;102009.16;;;-0.68;100.00
18765;BME280;9511;54.242;12.448;2023-04-06T05:58:56;102006.03;;;-0.64;100.00
18765;BME280;9511;54.242;12.448;2023-04-06T06:01:27;102007.34;;;-0.69;100.00
18765;BME280;9511;54.242;12.448;2023-04-06T06:03:56;102009.34;;;-0.56;100.00
18765;BME280;9511;54.242;12.448;2023-04-06T06:06:28;102007.84;;;-0.44;100.00
18765;BME280;9511;54.242;12.448;2023-04-06T06:09:09;102016.06;;;-0.29;100.00
18765;BME280;9511;54.242;12.448;2023-04-06T06:11:42;102025.59;;;-0.19;100.00
18765;BME280;9511;54.242;12.448;2023-04-06T06:14:12;102019.53;;;-0.10;100.00
18765;BME280;9511;54.242;12.448;2023-04-06T06:16:41;102015.09;;;-0.01;100.00
18765;BME280;9511;54.242;12.448;2023-04-06T06:19:12;102013.97;;;0.06;100.00
18765;BME280;9511;54.242;12.448;2023-04-06T06:21:39;102016.56;;;0.16;100.00
18765;BME280;9511;54.242;12.448;2023-04-06T06:24:07;102020.22;;;0.08;100.00
18765;BME280;9511;54.242;12.448;2023-04-06T06:26:34;102019.84;;;0.14;100.00
18765;BME280;9511;54.242;12.448;2023-04-06T06:29:04;102021.56;;;0.23;100.00
18765;BME280;9511;54.242;12.448;2023-04-06T06:31:33;102023.38;;;0.35;100.00
18765;BME280;9511;54.242;12.448;2023-04-06T06:34:01;102021.03;;;0.48;100.00
18765;BME280;9511;54.242;12.448;2023-04-06T06:36:31;102016.06;;;0.51;100.00
18765;BME280;9511;54.242;12.448;2023-04-06T06:38:58;102019.19;;;0.57;100.00
18765;BME280;9511;54.242;12.448;2023-04-06T06:41:26;102008.78;;;0.77;100.00
18765;BME280;9511;54.242;12.448;2023-04-06T06:43:54;102010.63;;;0.78;100.00
18765;BME280;9511;54.242;12.448;2023-04-06T06:46:21;102013.88;;;0.86;100.00
18765;BME280;9511;54.242;12.448;2023-04-06T06:48:49;102017.91;;;0.83;100.00
18765;BME280;9511;54.242;12.448;2023-04-06T06:51:16;102011.78;;;0.82;99.63
18765;BME280;9511;54.242;12.448;2023-04-06T06:53:44;102011.63;;;0.91;100.00
18765;BME280;9511;54.242;12.448;2023-04-06T06:56:12;102014.72;;;1.07;100.00
18765;BME280;9511;54.242;12.448;2023-04-06T06:58:39;102015.34;;;1.15;100.00
18765;BME280;9511;54.242;12.448;2023-04-06T07:01:07;102013.09;;;1.40;100.00
18765;BME280;9511;54.242;12.448;2023-04-06T07:03:35;102014.38;;;1.45;100.00
18765;BME280;9511;54.242;12.448;2023-04-06T07:06:02;102009.66;;;1.51;99.85
18765;BME280;9511;54.242;12.448;2023-04-06T07:08:30;102015.69;;;1.50;99.06
18765;BME280;9511;54.242;12.448;2023-04-06T07:10:58;102016.38;;;1.69;99.01
18765;BME280;9511;54.242;12.448;2023-04-06T07:13:25;102010.63;;;1.73;98.97
18765;BME280;9511;54.242;12.448;2023-04-06T07:15:56;102019.66;;;1.89;98.38
18765;BME280;9511;54.242;12.448;2023-04-06T07:18:23;102013.09;;;1.94;98.12
18765;BME280;9511;54.242;12.448;2023-04-06T07:20:50;102009.69;;;1.95;97.66
18765;BME280;9511;54.242;12.448;2023-04-06T07:23:18;102012.94;;;2.02;97.36
18765;BME280;9511;54.242;12.448;2023-04-06T07:25:45;102016.03;;;2.08;97.32
18765;BME280;9511;54.242;12.448;2023-04-06T07:28:14;102017.16;;;2.34;97.31
18765;BME280;9511;54.242;12.448;2023-04-06T07:30:42;102010.59;;;2.39;96.58
18765;BME280;9511;54.242;12.448;2023-04-06T07:33:11;102010.63;;;2.51;96.55
18765;BME280;9511;54.242;12.448;2023-04-06T07:35:39;102008.88;;;2.73;96.32
18765;BME280;9511;54.242;12.448;2023-04-06T07:38:07;102003.00;;;2.87;95.67
18765;BME280;9511;54.242;12.448;2023-04-06T07:40:35;102010.06;;;3.00;94.88
18765;BME280;9511;54.242;12.448;2023-04-06T07:43:03;102007.34;;;3.10;94.53
18765;BME280;9511;54.242;12.448;2023-04-06T07:45:32;102002.78;;;3.08;94.08
18765;BME280;9511;54.242;12.448;2023-04-06T07:48:01;102006.22;;;3.30;94.20
18765;BME280;9511;54.242;12.448;2023-04-06T07:50:29;102001.44;;;3.36;93.44
18765;BME280;9511;54.242;12.448;2023-04-06T07:52:57;102004.13;;;3.50;93.00
18765;BME280;9511;54.242;12.448;2023-04-06T07:55:25;102014.59;;;3.73;93.25
18765;BME280;9511;54.242;12.448;2023-04-06T07:57:52;102007.50;;;3.84;91.79
18765;BME280;9511;54.242;12.448;2023-04-06T08:00:20;102007.94;;;4.02;91.70
18765;BME280;9511;54.242;12.448;2023-04-06T08:02:49;102008.13;;;4.05;90.93
18765;BME280;9511;54.242;12.448;2023-04-06T08:05:16;102015.84;;;4.15;90.69
18765;BME280;9511;54.242;12.448;2023-04-06T08:07:44;102013.09;;;4.25;90.19
18765;BME280;9511;54.242;12.448;2023-04-06T08:10:12;102016.19;;;4.44;90.04
18765;BME280;9511;54.242;12.448;2023-04-06T08:12:39;102012.50;;;4.54;89.18
18765;BME280;9511;54.242;12.448;2023-04-06T08:15:07;102008.34;;;4.58;88.64
18765;BME280;9511;54.242;12.448;2023-04-06T08:17:34;102015.06;;;4.66;88.50
18765;BME280;9511;54.242;12.448;2023-04-06T08:20:04;102012.78;;;4.84;88.40
18765;BME280;9511;54.242;12.448;2023-04-06T08:22:31;102015.38;;;4.70;87.24
18765;BME280;9511;54.242;12.448;2023-04-06T08:24:58;102006.22;;;4.77;86.55
18765;BME280;9511;54.242;12.448;2023-04-06T08:27:26;102000.59;;;4.97;86.64
18765;BME280;9511;54.242;12.448;2023-04-06T08:29:53;102002.31;;;5.10;86.00
18765;BME280;9511;54.242;12.448;2023-04-06T08:32:21;102004.34;;;5.27;85.30
18765;BME280;9511;54.242;12.448;2023-04-06T08:34:48;102003.16;;;5.22;85.01
18765;BME280;9511;54.242;12.448;2023-04-06T08:37:17;101999.31;;;5.44;84.68
18765;BME280;9511;54.242;12.448;2023-04-06T08:39:44;101995.78;;;5.56;83.68
18765;BME280;9511;54.242;12.448;2023-04-06T08:42:18;102006.44;;;5.73;83.73
18765;BME280;9511;54.242;12.448;2023-04-06T08:44:47;102002.50;;;5.93;82.53
18765;BME280;9511;54.242;12.448;2023-04-06T08:47:16;102000.88;;;5.95;81.98
18765;BME280;9511;54.242;12.448;2023-04-06T08:49:44;101999.84;;;6.06;81.07
18765;BME280;9511;54.242;12.448;2023-04-06T08:52:12;102001.47;;;6.04;80.35
18765;BME280;9511;54.242;12.448;2023-04-06T08:54:40;101993.47;;;6.16;79.19
18765;BME280;9511;54.242;12.448;2023-04-06T08:57:08;101997.66;;;6.27;78.29
18765;BME280;9511;54.242;12.448;2023-04-06T08:59:36;101996.09;;;6.30;77.50
18765;BME280;9511;54.242;12.448;2023-04-06T09:02:04;101992.53;;;6.43;76.00
18765;BME280;9511;54.242;12.448;2023-04-06T09:04:33;101997.03;;;6.74;74.38
18765;BME280;9511;54.242;12.448;2023-04-06T09:07:02;101993.25;;;6.83;72.00
18765;BME280;9511;54.242;12.448;2023-04-06T09:09:29;101985.16;;;6.95;70.79
18765;BME280;9511;54.242;12.448;2023-04-06T09:11:58;101984.97;;;7.07;70.51
18765;BME280;9511;54.242;12.448;2023-04-06T09:14:35;101976.97;;;7.35;71.40
18765;BME280;9511;54.242;12.448;2023-04-06T09:17:04;101978.34;;;7.59;71.04
18765;BME280;9511;54.242;12.448;2023-04-06T09:19:32;101982.53;;;7.56;70.30
18765;BME280;9511;54.242;12.448;2023-04-06T09:22:03;101981.97;;;7.30;68.82
18765;BME280;9511;54.242;12.448;2023-04-06T09:24:40;101986.22;;;7.28;69.39
18765;BME280;9511;54.242;12.448;2023-04-06T09:27:08;101977.25;;;7.56;68.50
18765;BME280;9511;54.242;12.448;2023-04-06T09:29:36;101977.94;;;7.68;67.53
18765;BME280;9511;54.242;12.448;2023-04-06T09:32:04;101975.47;;;8.02;66.96
18765;BME280;9511;54.242;12.448;2023-04-06T09:34:32;101978.69;;;8.13;66.50
18765;BME280;9511;54.242;12.448;2023-04-06T09:37:00;101980.41;;;7.96;66.17
18765;BME280;9511;54.242;12.448;2023-04-06T09:39:27;101979.78;;;8.16;65.59
18765;BME280;9511;54.242;12.448;2023-04-06T09:41:55;101978.47;;;8.41;65.44
18765;BME280;9511;54.242;12.448;2023-04-06T09:44:24;101976.97;;;8.62;64.82
18765;BME280;9511;54.242;12.448;2023-04-06T09:46:53;101976.66;;;8.72;64.77
18765;BME280;9511;54.242;12.448;2023-04-06T09:49:22;101974.41;;;8.64;63.35
18765;BME280;9511;54.242;12.448;2023-04-06T09:52:02;101969.03;;;8.78;62.97
18765;BME280;9511;54.242;12.448;2023-04-06T09:54:31;101972.25;;;9.07;62.25
18765;BME280;9511;54.242;12.448;2023-04-06T09:57:05;101962.44;;;9.22;62.63
18765;BME280;9511;54.242;12.448;2023-04-06T09:59:41;101967.13;;;9.10;62.17
18765;BME280;9511;54.242;12.448;2023-04-06T10:02:15;101969.22;;;9.17;61.50
18765;BME280;9511;54.242;12.448;2023-04-06T10:04:50;101965.41;;;8.76;61.58
18765;BME280;9511;54.242;12.448;2023-04-06T10:07:20;101971.47;;;8.92;62.67
18765;BME280;9511;54.242;12.448;2023-04-06T10:09:49;101967.91;;;9.25;61.98
18765;BME280;9511;54.242;12.448;2023-04-06T10:12:17;101968.16;;;9.67;62.00
18765;BME280;9511;54.242;12.448;2023-04-06T10:14:47;101963.28;;;9.94;61.36
18765;BME280;9511;54.242;12.448;2023-04-06T10:17:15;101971.66;;;9.66;59.11
18765;BME280;9511;54.242;12.448;2023-04-06T10:19:46;101962.44;;;9.76;58.93
18765;BME280;9511;54.242;12.448;2023-04-06T10:22:22;101962.97;;;10.06;57.91
18765;BME280;9511;54.242;12.448;2023-04-06T10:24:51;101944.13;;;10.37;57.72
18765;BME280;9511;54.242;12.448;2023-04-06T10:27:27;101953.66;;;10.53;55.52
18765;BME280;9511;54.242;12.448;2023-04-06T10:30:01;101950.13;;;10.52;53.54
18765;BME280;9511;54.242;12.448;2023-04-06T10:32:34;101946.41;;;10.68;51.91
18765;BME280;9511;54.242;12.448;2023-04-06T10:35:07;101946.63;;;10.94;49.67
18765;BME280;9511;54.242;12.448;2023-04-06T10:37:47;101941.91;;;10.86;50.38
18765;BME280;9511;54.242;12.448;2023-04-06T10:40:18;101936.22;;;11.19;51.24
18765;BME280;9511;54.242;12.448;2023-04-06T10:42:46;101934.72;;;11.05;47.67
18765;BME280;9511;54.242;12.448;2023-04-06T10:45:22;101940.63;;;10.98;47.14
18765;BME280;9511;54.242;12.448;2023-04-06T10:47:52;101930.28;;;11.25;47.18
18765;BME280;9511;54.242;12.448;2023-04-06T10:50:20;101932.75;;;10.59;46.90
18765;BME280;9511;54.242;12.448;2023-04-06T10:52:58;101930.09;;;10.78;47.11
18765;BME280;9511;54.242;12.448;2023-04-06T10:55:27;101931.63;;;11.15;46.55
18765;BME280;9511;54.242;12.448;2023-04-06T10:57:55;101922.88;;;11.38;46.09
18765;BME280;9511;54.242;12.448;2023-04-06T11:00:23;101915.31;;;11.70;46.48
18765;BME280;9511;54.242;12.448;2023-04-06T11:02:51;101920.28;;;11.62;45.02
18765;BME280;9511;54.242;12.448;2023-04-06T11:05:18;101913.47;;;11.69;45.30
18765;BME280;9511;54.242;12.448;2023-04-06T11:07:46;101909.94;;;11.03;44.28
18765;BME280;9511;54.242;12.448;2023-04-06T11:10:21;101912.72;;;10.85;44.39
18765;BME280;9511;54.242;12.448;2023-04-06T11:12:53;101917.09;;;11.26;44.13
18765;BME280;9511;54.242;12.448;2023-04-06T11:15:20;101915.72;;;11.36;43.84
18765;BME280;9511;54.242;12.448;2023-04-06T11:17:49;101908.06;;;12.11;45.04
18765;BME280;9511;54.242;12.448;2023-04-06T11:20:16;101914.25;;;11.87;42.48
18765;BME280;9511;54.242;12.448;2023-04-06T11:22:49;101906.81;;;11.79;42.16
18765;BME280;9511;54.242;12.448;2023-04-06T11:25:17;101905.78;;;12.45;42.16
18765;BME280;9511;54.242;12.448;2023-04-06T11:27:45;101906.84;;;12.27;41.17
18765;BME280;9511;54.242;12.448;2023-04-06T11:30:13;101908.06;;;12.35;39.91
18765;BME280;9511;54.242;12.448;2023-04-06T11:32:41;101899.53;;;11.95;39.59
18765;BME280;9511;54.242;12.448;2023-04-06T11:35:20;101903.47;;;12.31;39.80
18765;BME280;9511;54.242;12.448;2023-04-06T11:37:49;101899.00;;;11.82;40.50
18765;BME280;9511;54.242;12.448;2023-04-06T11:40:21;101908.53;;;11.33;41.84
18765;BME280;9511;54.242;12.448;2023-04-06T11:42:52;101904.44;;;11.64;41.68
18765;BME280;9511;54.242;12.448;2023-04-06T11:45:19;101907.38;;;12.16;40.07
18765;BME280;9511;54.242;12.448;2023-04-06T11:47:55;101894.22;;;11.95;40.45
18765;BME280;9511;54.242;12.448;2023-04-06T11:50:24;101887.16;;;11.74;41.15
18765;BME280;9511;54.242;12.448;2023-04-06T11:52:58;101891.56;;;12.69;41.89
18765;BME280;9511;54.242;12.448;2023-04-06T11:55:27;101894.75;;;12.33;40.93
18765;BME280;9511;54.242;12.448;2023-04-06T11:57:54;101898.69;;;12.44;40.69
18765;BME280;9511;54.242;12.448;2023-04-06T12:00:22;101901.00;;;12.35;39.64
18765;BME280;9511;54.242;12.448;2023-04-06T12:02:49;101886.66;;;12.06;40.29
18765;BME280;9511;54.242;12.448;2023-04-06T12:05:17;101893.09;;;12.13;40.19
18765;BME280;9511;54.242;12.448;2023-04-06T12:07:46;101886.78;;;12.59;40.93
18765;BME280;9511;54.242;12.448;2023-04-06T12:10:13;101882.84;;;12.73;40.80
18765;BME280;9511;54.242;12.448;2023-04-06T12:12:40;101886.25;;;11.95;41.12
18765;BME280;9511;54.242;12.448;2023-04-06T12:15:08;101889.06;;;11.54;40.56
18765;BME280;9511;54.242;12.448;2023-04-06T12:17:36;101885.06;;;11.65;41.72
18765;BME280;9511;54.242;12.448;2023-04-06T12:20:04;101879.97;;;12.16;41.18
18765;BME280;9511;54.242;12.448;2023-04-06T12:25:01;101867.72;;;13.23;41.79
18765;BME280;9511;54.242;12.448;2023-04-06T12:27:28;101866.06;;;13.55;39.73
18765;BME280;9511;54.242;12.448;2023-04-06T12:29:55;101870.19;;;13.45;40.12
18765;BME280;9511;54.242;12.448;2023-04-06T12:32:23;101866.94;;;13.54;39.59
18765;BME280;9511;54.242;12.448;2023-04-06T12:34:52;101866.22;;;13.60;39.31
18765;BME280;9511;54.242;12.448;2023-04-06T12:37:19;101864.97;;;13.77;37.50
18765;BME280;9511;54.242;12.448;2023-04-06T12:39:47;101868.47;;;13.76;38.69
18765;BME280;9511;54.242;12.448;2023-04-06T12:42:16;101864.34;;;13.57;35.49
18765;BME280;9511;54.242;12.448;2023-04-06T12:44:43;101860.75;;;13.85;36.84
18765;BME280;9511;54.242;12.448;2023-04-06T12:47:10;101856.06;;;14.06;37.08
18765;BME280;9511;54.242;12.448;2023-04-06T12:49:38;101854.44;;;13.51;35.50
18765;BME280;9511;54.242;12.448;2023-04-06T12:52:05;101856.41;;;14.19;36.23
18765;BME280;9511;54.242;12.448;2023-04-06T12:54:33;101851.88;;;14.16;34.57
18765;BME280;9511;54.242;12.448;2023-04-06T12:57:00;101851.00;;;14.16;35.01
18765;BME280;9511;54.242;12.448;2023-04-06T12:59:29;101851.50;;;14.66;35.63
18765;BME280;9511;54.242;12.448;2023-04-06T13:02:00;101849.53;;;14.27;35.68
18765;BME280;9511;54.242;12.448;2023-04-06T13:04:28;101852.41;;;13.71;35.22
18765;BME280;9511;54.242;12.448;2023-04-06T13:06:55;101857.13;;;14.13;36.07
18765;BME280;9511;54.242;12.448;2023-04-06T13:09:22;101849.47;;;14.24;35.61
18765;BME280;9511;54.242;12.448;2023-04-06T13:11:50;101846.88;;;14.27;34.60
18765;BME280;9511;54.242;12.448;2023-04-06T13:14:17;101843.16;;;14.22;34.76
18765;BME280;9511;54.242;12.448;2023-04-06T13:16:46;101836.75;;;14.45;33.99
18765;BME280;9511;54.242;12.448;2023-04-06T13:19:14;101840.38;;;14.47;34.56
18765;BME280;9511;54.242;12.448;2023-04-06T13:21:41;101836.09;;;14.54;34.70
18765;BME280;9511;54.242;12.448;2023-04-06T13:24:08;101833.13;;;14.43;35.02
18765;BME280;9511;54.242;12.448;2023-04-06T13:26:36;101836.22;;;14.58;34.58
18765;BME280;9511;54.242;12.448;2023-04-06T13:29:03;101841.94;;;14.74;34.22
18765;BME280;9511;54.242;12.448;2023-04-06T13:31:31;101830.66;;;14.49;34.16
18765;BME280;9511;54.242;12.448;2023-04-06T13:33:59;101828.38;;;15.38;34.73
18765;BME280;9511;54.242;12.448;2023-04-06T13:36:26;101833.22;;;15.17;33.99
18765;BME280;9511;54.242;12.448;2023-04-06T13:38:54;101822.78;;;15.26;33.81
18765;BME280;9511;54.242;12.448;2023-04-06T13:41:23;101828.94;;;14.86;34.21
18765;BME280;9511;54.242;12.448;2023-04-06T13:43:51;101829.25;;;15.00;33.98
18765;BME280;9511;54.242;12.448;2023-04-06T13:46:18;101825.66;;;14.98;34.67
18765;BME280;9511;54.242;12.448;2023-04-06T13:48:46;101826.63;;;15.01;33.88
18765;BME280;9511;54.242;12.448;2023-04-06T13:51:15;101833.69;;;14.99;34.02
18765;BME280;9511;54.242;12.448;2023-04-06T13:53:42;101835.44;;;14.63;33.05
18765;BME280;9511;54.242;12.448;2023-04-06T13:56:10;101833.28;;;14.48;32.99
18765;BME280;9511;54.242;12.448;2023-04-06T13:58:37;101833.59;;;14.60;33.48
18765;BME280;9511;54.242;12.448;2023-04-06T14:01:05;101820.69;;;14.77;33.41
18765;BME280;9511;54.242;12.448;2023-04-06T14:03:33;101818.78;;;15.07;33.63
18765;BME280;9511;54.242;12.448;2023-04-06T14:06:01;101822.47;;;15.53;32.98
18765;BME280;9511;54.242;12.448;2023-04-06T14:08:30;101820.66;;;15.51;32.54
18765;BME280;9511;54.242;12.448;2023-04-06T14:10:57;101809.53;;;15.31;32.18
18765;BME280;9511;54.242;12.448;2023-04-06T14:13:24;101817.63;;;15.34;32.36
18765;BME280;9511;54.242;12.448;2023-04-06T14:15:53;101823.19;;;15.84;31.99
18765;BME280;9511;54.242;12.448;2023-04-06T14:18:21;101822.00;;;16.13;31.73
18765;BME280;9511;54.242;12.448;2023-04-06T14:20:54;101816.88;;;15.41;31.50
18765;BME280;9511;54.242;12.448;2023-04-06T14:23:21;101808.81;;;15.77;31.21
18765;BME280;9511;54.242;12.448;2023-04-06T14:25:50;101814.78;;;16.09;31.98
18765;BME280;9511;54.242;12.448;2023-04-06T14:28:17;101806.53;;;15.97;31.15
18765;BME280;9511;54.242;12.448;2023-04-06T14:30:45;101812.19;;;15.69;31.13
18765;BME280;9511;54.242;12.448;2023-04-06T14:33:12;101812.00;;;16.05;31.47
18765;BME280;9511;54.242;12.448;2023-04-06T14:35:40;101805.50;;;15.89;31.25
18765;BME280;9511;54.242;12.448;2023-04-06T14:38:08;101813.44;;;15.45;31.25
18765;BME280;9511;54.242;12.448;2023-04-06T14:40:35;101806.63;;;16.02;31.37
18765;BME280;9511;54.242;12.448;2023-04-06T14:43:04;101806.41;;;16.88;31.19
18765;BME280;9511;54.242;12.448;2023-04-06T14:45:33;101802.41;;;16.63;30.13
18765;BME280;9511;54.242;12.448;2023-04-06T14:48:02;101809.81;;;16.79;30.05
18765;BME280;9511;54.242;12.448;2023-04-06T14:50:31;101798.34;;;16.85;30.02
18765;BME280;9511;54.242;12.448;2023-04-06T14:52:59;101809.16;;;16.41;30.66
18765;BME280;9511;54.242;12.448;2023-04-06T14:55:26;101801.78;;;16.78;30.38
18765;BME280;9511;54.242;12.448;2023-04-06T14:57:54;101804.97;;;16.57;30.43
18765;BME280;9511;54.242;12.448;2023-04-06T15:00:23;101794.84;;;16.87;29.64
18765;BME280;9511;54.242;12.448;2023-04-06T15:02:50;101795.81;;;16.41;29.50
18765;BME280;9511;54.242;12.448;2023-04-06T15:05:17;101792.72;;;16.69;29.55
18765;BME280;9511;54.242;12.448;2023-04-06T15:07:45;101791.38;;;16.93;30.58
18765;BME280;9511;54.242;12.448;2023-04-06T15:10:12;101794.31;;;17.11;29.75
18765;BME280;9511;54.242;12.448;2023-04-06T15:12:39;101798.38;;;17.48;28.74
18765;BME280;9511;54.242;12.448;2023-04-06T15:15:07;101789.84;;;17.10;28.65
18765;BME280;9511;54.242;12.448;2023-04-06T15:17:36;101794.13;;;16.97;28.94
18765;BME280;9511;54.242;12.448;2023-04-06T15:20:05;101790.84;;;17.18;28.89
18765;BME280;9511;54.242;12.448;2023-04-06T15:22:32;101786.53;;;17.30;28.71
18765;BME280;9511;54.242;12.448;2023-04-06T15:24:59;101790.09;;;17.29;28.90
18765;BME280;9511;54.242;12.448;2023-04-06T15:27:27;101778.69;;;18.16;28.33
18765;BME280;9511;54.242;12.448;2023-04-06T15:29:54;101787.34;;;17.22;27.93
18765;BME280;9511;54.242;12.448;2023-04-06T15:32:21;101790.41;;;17.53;28.53
18765;BME280;9511;54.242;12.448;2023-04-06T15:34:50;101779.25;;;17.85;28.52
18765;BME280;9511;54.242;12.448;2023-04-06T15:37:17;101790.41;;;18.26;28.05
18765;BME280;9511;54.242;12.448;2023-04-06T15:39:45;101787.91;;;17.65;27.98
18765;BME280;9511;54.242;12.448;2023-04-06T15:42:12;101792.53;;;17.75;28.50
18765;BME280;9511;54.242;12.448;2023-04-06T15:44:40;101783.59;;;17.76;28.93
18765;BME280;9511;54.242;12.448;2023-04-06T15:47:07;101778.91;;;18.38;27.70
18765;BME280;9511;54.242;12.448;2023-04-06T15:49:34;101782.38;;;17.50;28.37
18765;BME280;9511;54.242;12.448;2023-04-06T15:52:03;101781.97;;;17.88;28.24
18765;BME280;9511;54.242;12.448;2023-04-06T15:54:31;101788.78;;;17.66;28.54
18765;BME280;9511;54.242;12.448;2023-04-06T15:56:58;101785.41;;;17.77;28.25
18765;BME280;9511;54.242;12.448;2023-04-06T15:59:26;101774.78;;;18.70;27.56
18765;BME280;9511;54.242;12.448;2023-04-06T16:01:53;101786.19;;;17.70;28.21
18765;BME280;9511;54.242;12.448;2023-04-06T16:04:21;101783.44;;;18.45;27.33
18765;BME280;9511;54.242;12.448;2023-04-06T16:06:48;101781.38;;;18.16;27.76